Time;durP1;ratioP1;P1;durP2;ratioP2;P2;SDS_P1;SDS_P2;PMS_P1;PMS_P2;Temp;Humidity;BMP_temperature;BMP_pressure;BME280_temperature;BME280_humidity;BME280_pressure;Samples;Min_cycle;Max_cycle;Signal;HPM_P1;HPM_P2
2021/10/20 00:02:18;;;;;;;7.05;3.55;;;13.60;99.90;;;;;;5005882;28;20081;-85
2021/10/20 00:04:44;;;;;;;7.30;4.03;;;13.80;99.90;;;;;;5000539;28;20030;-84
2021/10/20 00:07:10;;;;;;;9.18;3.53;;;13.90;99.90;;;;;;4999116;28;20031;-86
2021/10/20 00:09:35;;;;;;;7.20;3.75;;;14.80;99.90;;;;;;5018231;28;20033;-84
2021/10/20 00:12:01;;;;;;;4.97;3.38;;;14.40;99.90;;;;;;5020781;28;20026;-85
2021/10/20 00:14:27;;;;;;;5.93;3.63;;;13.90;99.90;;;;;;5004922;28;20131;-84
2021/10/20 00:16:53;;;;;;;4.68;3.28;;;13.90;99.90;;;;;;5007896;28;20018;-84
2021/10/20 00:19:19;;;;;;;6.45;3.58;;;15.30;99.90;;;;;;5004048;28;20019;-85
2021/10/20 00:21:45;;;;;;;7.32;3.55;;;16.20;99.90;;;;;;5006518;28;20026;-84
2021/10/20 00:24:10;;;;;;;8.15;4.25;;;13.90;99.90;;;;;;5003280;28;20019;-84
2021/10/20 00:26:37;;;;;;;8.55;4.35;;;15.20;99.90;;;;;;5004181;28;20018;-87
2021/10/20 00:29:03;;;;;;;6.85;4.00;;;14.40;99.90;;;;;;5001777;28;20023;-83
2021/10/20 00:31:30;;;;;;;6.43;3.88;;;14.40;99.90;;;;;;5002073;28;20023;-84
2021/10/20 00:33:56;;;;;;;7.72;4.45;;;13.90;99.90;;;;;;4998333;28;20023;-83
2021/10/20 00:36:21;;;;;;;9.77;4.28;;;13.80;99.90;;;;;;5000082;28;20023;-84
2021/10/20 00:38:47;;;;;;;5.35;3.88;;;13.80;99.90;;;;;;4990143;28;20092;-84
2021/10/20 00:41:13;;;;;;;7.18;4.43;;;15.70;99.90;;;;;;5001641;28;20093;-84
2021/10/20 00:43:41;;;;;;;7.95;4.32;;;13.80;99.90;;;;;;5003482;28;20065;-87
2021/10/20 00:46:06;;;;;;;8.98;4.60;;;14.70;99.90;;;;;;4999840;28;20049;-85
2021/10/20 00:48:32;;;;;;;8.05;4.50;;;13.80;99.90;;;;;;5002751;28;20465;-83
2021/10/20 00:50:58;;;;;;;5.90;3.97;;;14.30;99.90;;;;;;5001362;28;20045;-86
2021/10/20 00:53:24;;;;;;;6.60;4.10;;;14.90;99.90;;;;;;5000888;28;20034;-81
2021/10/20 00:55:49;;;;;;;6.95;4.35;;;13.80;99.90;;;;;;5001789;28;20093;-83
2021/10/20 00:58:16;;;;;;;7.72;4.75;;;13.70;99.90;;;;;;5001031;28;20037;-83
2021/10/20 01:00:41;;;;;;;7.38;4.50;;;13.70;99.90;;;;;;5000207;28;20037;-85
2021/10/20 01:03:07;;;;;;;6.57;4.20;;;13.60;99.90;;;;;;5002165;28;20034;-83
2021/10/20 01:05:34;;;;;;;7.82;4.80;;;13.70;99.90;;;;;;5000784;28;20037;-85
2021/10/20 01:08:00;;;;;;;7.95;4.70;;;13.70;99.90;;;;;;5000403;28;20022;-84
2021/10/20 01:10:26;;;;;;;7.30;4.43;;;13.70;99.90;;;;;;5003502;28;20031;-81
2021/10/20 01:12:51;;;;;;;10.77;4.35;;;13.70;99.90;;;;;;5019172;28;20030;-85
2021/10/20 01:15:20;;;;;;;6.70;4.00;;;12.50;99.90;;;;;;4996703;28;20125;-85
2021/10/20 01:17:47;;;;;;;6.30;4.10;;;12.90;99.90;;;;;;5000991;28;20046;-83
2021/10/20 01:20:14;;;;;;;7.57;4.18;;;13.60;99.90;;;;;;5006216;28;20022;-82
2021/10/20 01:22:40;;;;;;;8.30;4.72;;;13.60;99.90;;;;;;5016386;28;20048;-83
2021/10/20 01:25:09;;;;;;;5.38;4.00;;;13.70;99.90;;;;;;5006344;28;20045;-86
2021/10/20 01:27:38;;;;;;;8.00;4.55;;;13.60;99.90;;;;;;4999280;28;20030;-84
2021/10/20 01:30:07;;;;;;;9.95;4.55;;;13.50;99.90;;;;;;5015905;28;20030;-84
2021/10/20 01:32:33;;;;;;;7.28;4.70;;;13.60;99.90;;;;;;5006431;28;20035;-86
2021/10/20 01:34:59;;;;;;;7.43;4.68;;;13.60;99.90;;;;;;5011478;28;20291;-86
2021/10/20 01:37:26;;;;;;;12.95;7.55;;;14.70;99.90;;;;;;5005847;28;20034;-85
2021/10/20 01:39:56;;;;;;;8.65;5.45;;;13.50;99.90;;;;;;5000144;28;20053;-84
2021/10/20 01:42:26;;;;;;;7.97;5.25;;;15.90;99.90;;;;;;4998885;28;20030;-81
2021/10/20 01:44:55;;;;;;;8.00;4.33;;;14.90;99.90;;;;;;4998585;28;20125;-83
2021/10/20 01:47:21;;;;;;;7.35;4.93;;;14.50;99.90;;;;;;5000920;28;20034;-84
2021/10/20 01:49:47;;;;;;;7.13;4.20;;;14.40;99.90;;;;;;5001127;28;20169;-84
2021/10/20 01:52:12;;;;;;;8.18;4.60;;;13.40;99.90;;;;;;5000539;28;20129;-84
2021/10/20 01:54:38;;;;;;;7.72;5.20;;;13.20;99.90;;;;;;5001782;28;20370;-86
2021/10/20 01:57:04;;;;;;;7.18;4.57;;;12.30;99.90;;;;;;5002999;28;20080;-83
2021/10/20 01:59:30;;;;;;;8.52;5.13;;;13.40;99.90;;;;;;5002803;28;20034;-85
2021/10/20 02:01:56;;;;;;;9.13;4.97;;;16.00;99.90;;;;;;5007958;28;20053;-84
2021/10/20 02:04:22;;;;;;;14.57;8.07;;;14.50;99.90;;;;;;5001206;28;20034;-85
2021/10/20 02:06:47;;;;;;;8.70;5.53;;;12.30;99.90;;;;;;4998365;28;20033;-83
2021/10/20 02:09:13;;;;;;;7.28;5.13;;;12.90;99.90;;;;;;5003396;28;20050;-81
2021/10/20 02:11:41;;;;;;;6.70;4.78;;;14.00;99.90;;;;;;5001821;28;20046;-84
2021/10/20 02:14:09;;;;;;;7.97;5.18;;;13.20;99.90;;;;;;4998174;28;20019;-87
2021/10/20 02:16:39;;;;;;;7.80;5.15;;;13.30;99.90;;;;;;5020246;28;20027;-84
2021/10/20 02:19:05;;;;;;;7.00;5.23;;;12.50;99.90;;;;;;5000377;28;20027;-86
2021/10/20 02:21:32;;;;;;;9.07;5.53;;;15.10;99.90;;;;;;5002165;28;20037;-83
2021/10/20 02:23:58;;;;;;;7.43;4.75;;;14.40;99.90;;;;;;5009661;28;20039;-87
2021/10/20 02:26:24;;;;;;;9.52;5.30;;;12.60;99.90;;;;;;5002139;28;20027;-86
2021/10/20 02:28:49;;;;;;;9.15;5.00;;;13.40;99.90;;;;;;5003077;28;20026;-86
2021/10/20 02:31:17;;;;;;;10.32;5.72;;;13.40;99.90;;;;;;5019762;28;20177;-84
2021/10/20 02:33:43;;;;;;;9.00;5.45;;;13.50;99.90;;;;;;5000552;28;20077;-83
2021/10/20 02:36:08;;;;;;;10.68;6.88;;;13.40;99.90;;;;;;5002675;28;20077;-84
2021/10/20 02:38:34;;;;;;;7.88;5.45;;;13.40;99.90;;;;;;5006173;28;20022;-83
2021/10/20 02:41:00;;;;;;;9.98;5.60;;;13.40;99.90;;;;;;5000203;28;20030;-85
2021/10/20 02:43:26;;;;;;;8.95;5.20;;;15.40;99.90;;;;;;4993060;28;20030;-83
2021/10/20 02:45:51;;;;;;;11.07;5.63;;;14.30;99.90;;;;;;4999806;28;20030;-85
2021/10/20 02:48:17;;;;;;;8.50;5.50;;;11.40;99.90;;;;;;5003145;28;20030;-88
2021/10/20 02:50:43;;;;;;;10.80;6.45;;;14.00;99.90;;;;;;5000510;28;20040;-86
2021/10/20 02:53:09;;;;;;;9.50;5.90;;;13.40;99.90;;;;;;4999395;28;20049;-85
2021/10/20 02:55:39;;;;;;;7.22;5.30;;;15.20;99.90;;;;;;4999637;28;20033;-85
2021/10/20 02:58:05;;;;;;;9.77;5.90;;;14.20;99.90;;;;;;4999367;28;20022;-84
2021/10/20 03:00:31;;;;;;;7.93;5.68;;;13.40;99.90;;;;;;5001308;28;20528;-83
2021/10/20 03:03:00;;;;;;;9.00;5.95;;;13.90;99.90;;;;;;5016578;28;20125;-86
2021/10/20 03:05:28;;;;;;;9.27;5.88;;;12.30;99.90;;;;;;5003079;28;20030;-86
2021/10/20 03:07:56;;;;;;;8.82;5.57;;;14.80;99.90;;;;;;5000160;28;20031;-84
2021/10/20 03:10:22;;;;;;;9.65;6.10;;;13.80;99.90;;;;;;5000161;28;20049;-84
2021/10/20 03:12:47;;;;;;;11.73;6.38;;;12.80;99.90;;;;;;5002296;28;20026;-84
2021/10/20 03:15:13;;;;;;;8.32;5.70;;;;;;;;;;5000758;28;20033;-87
2021/10/20 03:17:39;;;;;;;9.43;6.35;;;13.60;99.90;;;;;;5002450;28;20034;-84
2021/10/20 03:20:08;;;;;;;8.75;6.25;;;13.90;99.90;;;;;;5005472;28;20101;-85
2021/10/20 03:22:45;;;;;;;8.82;5.40;;;13.60;99.90;;;;;;5001087;28;20436;-84
2021/10/20 03:25:12;;;;;;;8.35;5.68;;;13.50;99.90;;;;;;4993423;28;20074;-84
2021/10/20 03:27:47;;;;;;;7.68;5.55;;;13.70;99.90;;;;;;5002447;28;20030;-82
2021/10/20 03:30:17;;;;;;;8.75;5.82;;;15.00;99.90;;;;;;5009340;28;20403;-84
2021/10/20 03:32:42;;;;;;;11.13;5.75;;;13.70;99.90;;;;;;5001432;28;20034;-86
2021/10/20 03:35:09;;;;;;;8.15;5.65;;;14.00;99.90;;;;;;4998066;28;20026;-84
2021/10/20 03:37:38;;;;;;;9.48;6.20;;;13.70;99.90;;;;;;5007637;28;20110;-84
2021/10/20 03:40:05;;;;;;;8.98;6.18;;;13.70;99.90;;;;;;5003748;28;20026;-82
2021/10/20 03:42:31;;;;;;;8.45;6.20;;;13.70;99.90;;;;;;5006948;28;20022;-84
2021/10/20 03:44:57;;;;;;;9.65;5.82;;;;;;;;;;5001293;28;20455;-86
2021/10/20 03:47:23;;;;;;;12.07;6.18;;;13.70;99.90;;;;;;5019121;28;20468;-86
2021/10/20 03:49:49;;;;;;;8.98;6.00;;;13.50;99.90;;;;;;5002910;28;20245;-87
2021/10/20 03:52:16;;;;;;;12.10;6.50;;;13.60;99.90;;;;;;5004188;28;20090;-80
2021/10/20 03:54:42;;;;;;;12.13;6.57;;;13.60;99.90;;;;;;5004401;28;20066;-85
2021/10/20 03:57:08;;;;;;;10.25;6.65;;;16.10;99.90;;;;;;5002303;28;20042;-83
2021/10/20 03:59:42;;;;;;;13.85;7.88;;;13.60;99.90;;;;;;5006513;28;20026;-85
2021/10/20 04:02:08;;;;;;;10.93;7.20;;;14.60;99.90;;;;;;5018755;28;20030;-85
2021/10/20 04:04:33;;;;;;;9.32;6.82;;;13.60;99.90;;;;;;5006877;28;20053;-83
2021/10/20 04:06:59;;;;;;;9.93;6.53;;;14.20;99.90;;;;;;5022280;28;20044;-83
2021/10/20 04:09:25;;;;;;;10.73;6.45;;;15.40;99.90;;;;;;5003813;28;20030;-86
2021/10/20 04:11:50;;;;;;;22.33;11.52;;;13.40;99.90;;;;;;5016413;28;20037;-84
2021/10/20 04:14:16;;;;;;;10.13;7.18;;;13.50;99.90;;;;;;5015383;28;20026;-85
2021/10/20 04:16:42;;;;;;;10.82;6.72;;;13.40;99.90;;;;;;5006507;28;20049;-85
2021/10/20 04:19:07;;;;;;;12.90;7.00;;;13.40;99.90;;;;;;5000324;28;20113;-83
2021/10/20 04:21:33;;;;;;;11.23;7.10;;;13.30;99.90;;;;;;5001483;28;20109;-83
2021/10/20 04:23:59;;;;;;;11.27;6.95;;;15.60;99.90;;;;;;5000684;28;20030;-85
2021/10/20 04:26:24;;;;;;;9.80;6.32;;;13.40;99.90;;;;;;4998503;28;20026;-87
2021/10/20 04:28:50;;;;;;;9.45;6.43;;;15.50;99.90;;;;;;4999847;28;20543;-86
2021/10/20 04:31:16;;;;;;;11.23;6.68;;;13.40;99.90;;;;;;4997916;28;20090;-81
2021/10/20 04:33:41;;;;;;;10.38;6.50;;;13.20;99.90;;;;;;5002385;28;20052;-83
2021/10/20 04:36:07;;;;;;;11.68;6.90;;;14.20;99.90;;;;;;5007129;28;20058;-85
2021/10/20 04:38:36;;;;;;;11.10;6.78;;;13.20;99.90;;;;;;5003093;28;20033;-84
2021/10/20 04:41:03;;;;;;;8.65;6.07;;;14.10;99.90;;;;;;5007506;28;20033;-83
2021/10/20 04:43:29;;;;;;;9.95;6.40;;;14.80;99.90;;;;;;5009410;28;20018;-81
2021/10/20 04:45:54;;;;;;;10.52;6.97;;;13.90;99.90;;;;;;5008581;28;20033;-84
2021/10/20 04:48:22;;;;;;;11.80;7.13;;;13.50;99.90;;;;;;4999944;28;20037;-84
2021/10/20 04:50:48;;;;;;;11.10;6.75;;;14.40;99.90;;;;;;5003359;28;20037;-85
2021/10/20 04:53:13;;;;;;;11.82;6.80;;;13.30;99.90;;;;;;5000716;28;20400;-84
2021/10/20 04:55:41;;;;;;;11.35;6.78;;;13.30;99.90;;;;;;5002967;28;20038;-83
2021/10/20 04:58:08;;;;;;;10.38;6.65;;;14.90;99.90;;;;;;5000044;28;20061;-85
2021/10/20 05:00:35;;;;;;;10.60;6.95;;;13.30;99.90;;;;;;5007329;28;20030;-83
2021/10/20 05:03:01;;;;;;;10.23;7.00;;;13.20;99.90;;;;;;5004827;28;20044;-82
2021/10/20 05:05:30;;;;;;;11.50;6.97;;;13.30;99.90;;;;;;5004484;28;20026;-84
2021/10/20 05:07:58;;;;;;;10.02;7.43;;;15.10;99.90;;;;;;5019623;28;20143;-85
2021/10/20 05:10:27;;;;;;;11.32;7.68;;;13.40;99.90;;;;;;5003795;28;20034;-84
2021/10/20 05:12:56;;;;;;;9.55;6.40;;;14.30;99.90;;;;;;5006292;28;20033;-84
2021/10/20 05:15:23;;;;;;;9.95;6.97;;;13.30;99.90;;;;;;5001752;28;20026;-84
2021/10/20 05:17:49;;;;;;;10.75;7.50;;;15.00;99.90;;;;;;5001882;28;20027;-85
2021/10/20 05:20:17;;;;;;;11.45;7.35;;;15.10;99.90;;;;;;5001106;28;20026;-84
2021/10/20 05:22:44;;;;;;;12.27;7.35;;;15.30;99.90;;;;;;4990694;28;20509;-84
2021/10/20 05:25:12;;;;;;;12.82;7.78;;;13.20;99.90;;;;;;4999671;28;20038;-84
2021/10/20 05:27:38;;;;;;;11.32;7.60;;;13.20;99.90;;;;;;5000836;28;20090;-85
2021/10/20 05:30:05;;;;;;;12.93;8.13;;;13.30;99.90;;;;;;5015437;28;20504;-81
2021/10/20 05:32:30;;;;;;;15.00;7.90;;;13.20;99.90;;;;;;5011937;28;20050;-83
2021/10/20 05:34:56;;;;;;;12.63;8.40;;;13.40;99.90;;;;;;5017148;28;20038;-80
2021/10/20 05:37:22;;;;;;;13.90;8.45;;;;;;;;;;5002757;28;20023;-85
2021/10/20 05:39:48;;;;;;;11.40;8.15;;;13.30;99.90;;;;;;5002594;28;20465;-84
2021/10/20 05:42:18;;;;;;;10.98;7.70;;;13.30;99.90;;;;;;5003093;28;20029;-85
2021/10/20 05:44:47;;;;;;;10.52;7.78;;;16.00;99.90;;;;;;5008704;28;20027;-83
2021/10/20 05:47:13;;;;;;;11.43;7.45;;;13.40;99.90;;;;;;5002818;28;20050;-82
2021/10/20 05:49:42;;;;;;;11.95;7.82;;;13.60;99.90;;;;;;4998638;28;20096;-84
2021/10/20 05:52:11;;;;;;;10.13;7.32;;;13.60;99.90;;;;;;5007210;28;20034;-83
2021/10/20 05:54:40;;;;;;;11.57;7.40;;;15.00;99.90;;;;;;5004223;28;20018;-84
2021/10/20 05:57:05;;;;;;;12.90;7.32;;;13.70;99.90;;;;;;5022719;28;20052;-83
2021/10/20 05:59:31;;;;;;;14.88;9.73;;;;;;;;;;5004852;28;20105;-82
2021/10/20 06:01:57;;;;;;;10.13;6.93;;;;;;;;;;5009108;28;20053;-82
2021/10/20 06:04:23;;;;;;;9.98;7.18;;;;;;;;;;5012374;28;20045;-84
2021/10/20 06:06:49;;;;;;;9.80;7.10;;;;;;;;;;5001703;28;20081;-83
2021/10/20 06:09:15;;;;;;;11.60;7.45;;;;;;;;;;5004598;28;20471;-81
2021/10/20 06:11:42;;;;;;;10.90;7.20;;;;;;;;;;5000866;28;20041;-83
2021/10/20 06:14:08;;;;;;;12.88;7.10;;;;;;;;;;5004618;28;20011;-83
2021/10/20 06:16:36;;;;;;;10.82;6.95;;;;;;;;;;5004980;28;20033;-82
2021/10/20 06:19:03;;;;;;;10.82;6.82;;;14.10;99.90;;;;;;5005471;28;20042;-82
2021/10/20 06:21:29;;;;;;;10.52;6.90;;;14.20;99.90;;;;;;5009131;28;20022;-82
2021/10/20 06:23:55;;;;;;;11.50;7.13;;;16.20;99.90;;;;;;5005544;28;20038;-81
2021/10/20 06:26:23;;;;;;;11.05;6.68;;;16.30;99.90;;;;;;5004491;28;20037;-82
2021/10/20 06:28:49;;;;;;;10.32;6.95;;;14.10;99.90;;;;;;5003776;28;20098;-83
2021/10/20 06:31:15;;;;;;;14.85;8.07;;;14.10;99.90;;;;;;5005555;28;20030;-80
2021/10/20 06:33:44;;;;;;;11.77;7.07;;;14.20;99.90;;;;;;5001037;28;20031;-81
2021/10/20 06:36:20;;;;;;;8.43;6.35;;;14.20;99.90;;;;;;5002077;28;20084;-83
2021/10/20 06:38:46;;;;;;;13.35;7.07;;;16.10;99.90;;;;;;4997035;28;20022;-84
2021/10/20 06:41:13;;;;;;;12.05;7.40;;;;;;;;;;5004497;28;20057;-82
2021/10/20 06:43:41;;;;;;;11.02;7.18;;;14.40;99.90;;;;;;5004838;28;20094;-83
2021/10/20 06:46:09;;;;;;;9.88;7.32;;;14.50;99.90;;;;;;5003160;28;20030;-82
2021/10/20 06:48:35;;;;;;;9.25;6.63;;;14.40;99.90;;;;;;4998172;28;20034;-82
2021/10/20 06:51:01;;;;;;;10.23;7.40;;;14.50;99.90;;;;;;5007216;28;20030;-78
2021/10/20 06:53:34;;;;;;;12.27;7.05;;;14.50;99.90;;;;;;5005485;28;20030;-82
2021/10/20 06:56:05;;;;;;;11.77;7.40;;;;;;;;;;5008783;28;20037;-81
2021/10/20 06:58:31;;;;;;;9.75;6.40;;;;;;;;;;5004282;28;20022;-80
2021/10/20 07:00:57;;;;;;;8.13;6.35;;;;;;;;;;5007360;28;20030;-79
2021/10/20 07:03:26;;;;;;;9.18;7.00;;;14.60;99.90;;;;;;5002035;28;20309;-78
2021/10/20 07:05:51;;;;;;;11.00;6.38;;;14.60;99.90;;;;;;5017357;28;20057;-80
2021/10/20 07:08:17;;;;;;;11.18;6.47;;;14.60;99.90;;;;;;5014604;28;20030;-79
2021/10/20 07:10:45;;;;;;;12.38;7.30;;;13.40;99.90;;;;;;5000180;28;20447;-83
2021/10/20 07:13:11;;;;;;;13.63;6.78;;;16.40;99.90;;;;;;5013316;28;20085;-84
2021/10/20 07:15:37;;;;;;;9.77;6.45;;;14.60;99.90;;;;;;5000320;28;20057;-83
2021/10/20 07:18:03;;;;;;;10.18;6.53;;;14.70;99.90;;;;;;5004330;28;20034;-81
2021/10/20 07:20:29;;;;;;;8.75;6.85;;;14.70;99.90;;;;;;4999237;28;20026;-82
2021/10/20 07:22:57;;;;;;;9.00;6.63;;;14.80;99.90;;;;;;5005717;28;20059;-80
2021/10/20 07:25:23;;;;;;;11.18;6.72;;;14.90;99.90;;;;;;5007133;28;20072;-80
2021/10/20 07:27:50;;;;;;;8.75;6.60;;;14.80;99.90;;;;;;4995926;28;20026;-79
2021/10/20 07:30:16;;;;;;;8.77;6.63;;;14.90;99.90;;;;;;4999809;28;20473;-77
2021/10/20 07:32:43;;;;;;;10.10;6.80;;;16.80;99.90;;;;;;4997622;28;20149;-84
2021/10/20 07:35:10;;;;;;;9.52;7.03;;;14.90;99.90;;;;;;5013233;28;20019;-81
2021/10/20 07:37:37;;;;;;;10.23;6.30;;;14.90;99.90;;;;;;5009800;28;20022;-79
2021/10/20 07:40:05;;;;;;;8.85;6.65;;;15.00;99.90;;;;;;5004243;28;20023;-82
2021/10/20 07:42:32;;;;;;;9.70;5.75;;;15.00;99.90;;;;;;5003742;28;20049;-79
2021/10/20 07:44:58;;;;;;;8.13;6.22;;;15.70;99.90;;;;;;5001290;28;20030;-78
2021/10/20 07:47:26;;;;;;;12.02;6.07;;;15.30;99.90;;;;;;5003823;28;20386;-83
2021/10/20 07:49:55;;;;;;;9.90;6.32;;;15.40;99.90;;;;;;5018480;28;20034;-80
2021/10/20 07:52:25;;;;;;;8.80;6.00;;;15.20;99.90;;;;;;5014067;28;20057;-80
2021/10/20 07:54:52;;;;;;;9.40;6.03;;;15.30;99.90;;;;;;5003840;28;20050;-81
2021/10/20 07:57:18;;;;;;;9.60;5.78;;;15.20;99.90;;;;;;5008601;28;20034;-81
2021/10/20 07:59:44;;;;;;;8.68;6.03;;;16.90;99.90;;;;;;5002176;28;20019;-82
2021/10/20 08:02:09;;;;;;;9.15;5.65;;;15.30;99.90;;;;;;5002345;28;20046;-80
2021/10/20 08:04:35;;;;;;;9.07;5.93;;;15.40;99.90;;;;;;5006468;28;20026;-79
2021/10/20 08:07:04;;;;;;;9.30;6.28;;;15.50;99.90;;;;;;5005608;28;20058;-81
2021/10/20 08:09:29;;;;;;;9.15;6.25;;;15.60;99.90;;;;;;5002658;28;20041;-80
2021/10/20 08:11:55;;;;;;;11.38;6.38;;;15.50;99.90;;;;;;5013850;28;20038;-82
2021/10/20 08:14:21;;;;;;;8.68;6.40;;;16.30;99.90;;;;;;5010314;28;20066;-81
2021/10/20 08:16:47;;;;;;;8.98;5.90;;;15.60;99.90;;;;;;5018090;28;20021;-83
2021/10/20 08:19:13;;;;;;;10.45;5.80;;;17.10;99.90;;;;;;4997207;28;20023;-81
2021/10/20 08:21:38;;;;;;;8.38;5.40;;;15.80;99.90;;;;;;5006371;28;20259;-81
2021/10/20 08:24:07;;;;;;;6.85;5.03;;;16.80;99.90;;;;;;5008919;28;20488;-81
2021/10/20 08:26:33;;;;;;;9.02;5.82;;;16.00;99.90;;;;;;5004195;28;20108;-81
2021/10/20 08:28:59;;;;;;;8.15;5.10;;;16.20;99.90;;;;;;5001969;28;20508;-82
2021/10/20 08:31:24;;;;;;;8.57;5.88;;;16.10;99.90;;;;;;5002308;28;20034;-80
2021/10/20 08:33:50;;;;;;;8.50;5.22;;;17.40;99.90;;;;;;5000537;28;20026;-82
2021/10/20 08:36:20;;;;;;;8.70;5.45;;;16.10;99.90;;;;;;5001174;28;20014;-79
2021/10/20 08:38:46;;;;;;;10.45;6.00;;;16.50;99.90;;;;;;5008611;28;20015;-83
2021/10/20 08:41:12;;;;;;;9.18;5.20;;;16.20;99.90;;;;;;4998503;28;20037;-82
2021/10/20 08:43:39;;;;;;;10.40;5.38;;;16.20;99.90;;;;;;4998959;28;20113;-81
2021/10/20 08:46:05;;;;;;;7.72;5.30;;;16.40;99.90;;;;;;5004154;28;20026;-80
2021/10/20 08:48:32;;;;;;;9.93;4.40;;;16.40;99.90;;;;;;4999714;28;20550;-82
2021/10/20 08:51:12;;;;;;;;;;;;;;;;;;;;;
2021/10/20 08:56:21;;;;;;;8.02;5.07;;;16.70;99.90;;;;;;5038547;28;20053;-86
2021/10/20 08:58:47;;;;;;;8.07;4.88;;;;;;;;;;5033159;28;20191;-82
2021/10/20 09:01:13;;;;;;;6.80;4.65;;;;;;;;;;5035727;28;20095;-86
2021/10/20 09:03:39;;;;;;;8.65;4.70;;;;;;;;;;5045845;28;20061;-83
2021/10/20 09:06:08;;;;;;;7.70;4.60;;;17.30;99.90;;;;;;5015775;28;20044;-83
2021/10/20 09:08:44;;;;;;;6.57;4.30;;;17.40;99.90;;;;;;5039703;28;20025;-84
2021/10/20 09:11:32;;;;;;;7.90;4.78;;;17.40;99.90;;;;;;5040350;28;20087;-84
2021/10/20 09:13:59;;;;;;;7.20;4.43;;;17.40;99.90;;;;;;5039752;28;20095;-84
2021/10/20 09:16:25;;;;;;;6.55;4.50;;;17.30;99.90;;;;;;5040705;28;20087;-84
2021/10/20 09:18:51;;;;;;;8.13;4.80;;;17.40;99.90;;;;;;5035498;28;20025;-84
2021/10/20 09:21:17;;;;;;;8.82;4.60;;;17.40;99.90;;;;;;5038804;28;20021;-83
2021/10/20 09:23:42;;;;;;;9.40;5.20;;;17.40;99.90;;;;;;5040081;28;20025;-84
2021/10/20 09:26:09;;;;;;;7.50;4.47;;;17.20;99.90;;;;;;5039262;28;20089;-82
2021/10/20 09:28:38;;;;;;;10.40;6.65;;;17.30;99.90;;;;;;5042462;28;20095;-83
2021/10/20 09:31:08;;;;;;;9.90;4.47;;;17.30;99.90;;;;;;5039862;28;20056;-83
2021/10/20 09:33:39;;;;;;;9.05;5.45;;;17.30;99.90;;;;;;5038313;28;20124;-83
2021/10/20 09:36:17;;;;;;;8.20;4.70;;;17.30;99.90;;;;;;5037203;28;20054;-81
2021/10/20 09:38:49;;;;;;;8.35;4.53;;;17.20;99.90;;;;;;5038468;28;20022;-87
2021/10/20 09:41:16;;;;;;;10.82;4.65;;;17.30;99.90;;;;;;5038388;28;20432;-82
2021/10/20 09:43:44;;;;;;;6.88;4.97;;;17.30;99.90;;;;;;5035518;28;20117;-79
2021/10/20 09:46:10;;;;;;;11.15;4.90;;;17.20;99.90;;;;;;5038117;28;20032;-84
2021/10/20 09:48:42;;;;;;;6.45;4.55;;;17.30;99.90;;;;;;5043868;28;20018;-82
2021/10/20 09:51:13;;;;;;;6.97;4.57;;;17.30;99.90;;;;;;5037940;28;20026;-84
2021/10/20 09:53:42;;;;;;;5.78;4.53;;;17.40;99.90;;;;;;5043218;28;20033;-83
2021/10/20 09:56:31;;;;;;;6.60;4.65;;;17.40;99.90;;;;;;5036276;28;20038;-82
2021/10/20 09:58:57;;;;;;;7.28;4.72;;;17.40;99.90;;;;;;5043313;28;20056;-82
2021/10/20 10:01:26;;;;;;;7.97;5.50;;;17.40;99.90;;;;;;5040213;28;20018;-85
2021/10/20 10:03:57;;;;;;;8.93;4.60;;;17.30;99.90;;;;;;5036682;28;20026;-82
2021/10/20 10:06:23;;;;;;;7.30;4.30;;;;;;;;;;5044217;28;20130;-84
2021/10/20 10:08:49;;;;;;;9.43;4.82;;;;;;;;;;5059257;28;20482;-82
2021/10/20 10:11:15;;;;;;;8.43;4.43;;;;;;;;;;5044426;28;20500;-85
2021/10/20 10:13:55;;;;;;;6.43;4.38;;;17.40;99.90;;;;;;5042009;28;20029;-81
2021/10/20 10:16:27;;;;;;;6.22;4.40;;;17.30;99.90;;;;;;5035200;28;20501;-82
2021/10/20 10:18:58;;;;;;;6.65;4.20;;;17.10;99.90;;;;;;5043795;28;20045;-84
2021/10/20 10:21:28;;;;;;;7.07;4.40;;;17.00;99.90;;;;;;5039724;28;20128;-82
2021/10/20 10:23:57;;;;;;;7.25;4.47;;;17.00;99.90;;;;;;5040574;28;20052;-81
2021/10/20 10:26:24;;;;;;;7.35;4.30;;;;;;;;;;5031017;28;20428;-83
2021/10/20 10:29:22;;;;;;;7.57;4.45;;;17.10;99.90;;;;;;5037294;28;20045;-83
2021/10/20 10:31:50;;;;;;;6.85;3.83;;;17.10;99.90;;;;;;4998502;28;20041;-84
2021/10/20 10:34:19;;;;;;;6.90;4.00;;;17.10;99.90;;;;;;5038346;28;20040;-84
2021/10/20 10:36:58;;;;;;;8.02;4.70;;;17.20;99.90;;;;;;5041341;28;20049;-83
2021/10/20 10:39:24;;;;;;;8.00;4.87;;;17.10;99.90;;;;;;5042255;28;20038;-84
2021/10/20 10:41:56;;;;;;;8.50;4.50;;;17.10;99.90;;;;;;5043820;28;20120;-85
2021/10/20 10:44:23;;;;;;;8.20;4.30;;;17.10;99.90;;;;;;5045492;28;20057;-85
2021/10/20 10:47:08;;;;;;;10.75;5.85;;;17.20;99.90;;;;;;5044784;28;20467;-83
2021/10/20 10:49:43;;;;;;;6.88;4.80;;;16.90;99.90;;;;;;5041847;28;20116;-83
2021/10/20 10:52:31;;;;;;;6.07;4.40;;;17.10;99.90;;;;;;5036793;28;20060;-84
2021/10/20 10:55:06;;;;;;;6.65;4.25;;;17.10;99.90;;;;;;5038928;28;20033;-83
2021/10/20 10:57:37;;;;;;;5.60;4.15;;;17.10;99.90;;;;;;5045140;28;20505;-86
2021/10/20 11:00:08;;;;;;;6.15;4.45;;;17.20;99.90;;;;;;5040654;28;20045;-83
2021/10/20 11:02:47;;;;;;;7.60;4.40;;;17.30;99.90;;;;;;5044527;28;20563;-84
2021/10/20 11:05:13;;;;;;;10.07;5.88;;;;;;;;;;5043376;28;20030;-80
2021/10/20 11:07:43;;;;;;;7.80;4.40;;;17.40;99.90;;;;;;5048612;28;20044;-81
2021/10/20 11:10:10;;;;;;;6.50;4.18;;;17.40;99.90;;;;;;5034762;28;20039;-80
2021/10/20 11:12:36;;;;;;;16.83;5.07;;;;;;;;;;5041944;28;20053;-79
2021/10/20 11:15:02;;;;;;;6.63;4.38;;;;;;;;;;5053088;28;20041;-82
2021/10/20 11:17:31;;;;;;;8.52;4.82;;;17.40;99.90;;;;;;5045032;28;20032;-82
2021/10/20 11:19:57;;;;;;;8.52;4.15;;;;;;;;;;5043850;28;20045;-83
2021/10/20 11:22:24;;;;;;;5.93;4.65;;;;;;;;;;5059486;28;20026;-80
2021/10/20 11:24:52;;;;;;;8.80;4.57;;;17.60;99.90;;;;;;5049661;28;20060;-81
2021/10/20 11:27:23;;;;;;;7.07;3.58;;;17.70;99.90;;;;;;5043479;28;20030;-82
2021/10/20 11:29:51;;;;;;;6.47;4.00;;;17.80;99.90;;;;;;5043618;28;20033;-82
2021/10/20 11:32:19;;;;;;;7.32;3.97;;;17.80;99.90;;;;;;5037726;28;20040;-84
2021/10/20 11:34:45;;;;;;;5.68;3.90;;;;;;;;;;5041558;28;20033;-83
2021/10/20 11:37:14;;;;;;;5.50;3.90;;;17.90;99.90;;;;;;5044801;28;20028;-84
2021/10/20 11:39:41;;;;;;;7.38;4.93;;;18.00;99.90;;;;;;5042710;28;20026;-83
2021/10/20 11:42:12;;;;;;;5.32;3.83;;;18.00;99.90;;;;;;5041151;28;20026;-81
2021/10/20 11:44:39;;;;;;;;;;;18.00;99.90;;;;;;5040129;28;20105;-82
2021/10/20 11:47:08;;;;;;;6.28;3.30;;;18.00;99.90;;;;;;5041992;28;19920;-82
2021/10/20 11:49:35;;;;;;;5.47;3.55;;;18.10;99.90;;;;;;5043325;28;20013;-83
2021/10/20 11:52:04;;;;;;;5.95;3.75;;;18.20;99.90;;;;;;5041318;28;20056;-81
2021/10/20 11:54:31;;;;;;;9.05;4.40;;;;;;;;;;5038584;28;20025;-81
2021/10/20 11:56:58;;;;;;;5.05;3.88;;;18.30;99.90;;;;;;5042091;28;20495;-81
2021/10/20 11:59:27;;;;;;;4.88;3.65;;;17.20;99.90;;;;;;5043990;28;20029;-80
2021/10/20 12:01:53;;;;;;;5.47;3.58;;;18.20;99.90;;;;;;5040424;28;20027;-82
2021/10/20 12:04:21;;;;;;;6.07;3.90;;;18.20;99.90;;;;;;5043191;28;20060;-81
2021/10/20 12:06:50;;;;;;;5.55;3.65;;;18.20;99.90;;;;;;5038633;28;20026;-82
2021/10/20 12:09:16;;;;;;;6.32;4.00;;;18.20;99.90;;;;;;5038167;28;20029;-83
2021/10/20 12:11:43;;;;;;;6.28;4.10;;;18.20;99.90;;;;;;5036682;28;20032;-84
2021/10/20 12:14:12;;;;;;;6.60;4.28;;;18.80;99.90;;;;;;5030988;28;20029;-83
2021/10/20 12:16:40;;;;;;;5.80;4.10;;;18.20;99.90;;;;;;5040964;28;20022;-83
2021/10/20 12:19:08;;;;;;;6.72;4.20;;;18.20;99.90;;;;;;5031925;28;20295;-82
2021/10/20 12:21:37;;;;;;;5.45;3.70;;;18.10;99.90;;;;;;5041590;28;20089;-82
2021/10/20 12:24:03;;;;;;;5.85;4.07;;;18.20;99.90;;;;;;5034368;28;20053;-84
2021/10/20 12:26:31;;;;;;;7.68;4.15;;;18.20;99.90;;;;;;5031390;28;20036;-80
2021/10/20 12:29:01;;;;;;;7.45;4.28;;;17.90;99.90;;;;;;5034149;28;20033;-83
2021/10/20 12:31:27;;;;;;;5.72;4.15;;;17.90;99.90;;;;;;5037959;28;20032;-83
2021/10/20 12:33:55;;;;;;;14.23;4.45;;;17.80;99.90;;;;;;5038695;28;20087;-80
2021/10/20 12:36:23;;;;;;;7.35;4.20;;;17.70;99.90;;;;;;5040022;28;20025;-81
2021/10/20 12:38:50;;;;;;;7.30;4.50;;;17.70;99.90;;;;;;5041077;28;20081;-85
2021/10/20 12:41:19;;;;;;;5.10;4.20;;;17.60;99.90;;;;;;5033534;28;20036;-84
2021/10/20 12:43:50;;;;;;;6.80;4.55;;;17.50;99.90;;;;;;5043114;28;20508;-84
2021/10/20 12:46:18;;;;;;;7.15;4.53;;;17.40;99.90;;;;;;5039828;28;20033;-86
2021/10/20 12:48:45;;;;;;;6.85;4.45;;;17.30;99.90;;;;;;5042614;28;20037;-83
2021/10/20 12:51:16;;;;;;;8.25;4.50;;;17.30;99.90;;;;;;5041097;28;20029;-84
2021/10/20 12:53:44;;;;;;;6.15;4.28;;;17.30;99.90;;;;;;5037534;28;20029;-84
2021/10/20 12:56:10;;;;;;;8.48;4.28;;;17.30;99.90;;;;;;5036581;28;20037;-84
2021/10/20 12:58:37;;;;;;;5.88;4.05;;;17.40;99.90;;;;;;5038416;28;20067;-87
2021/10/20 13:01:04;;;;;;;6.80;4.85;;;17.40;99.90;;;;;;5040202;28;20037;-84